Portada
METAR-TAF:

METAR-TAF

Aeroports :

Nan, Tailàndia

latitud: 18-46N, longitud: 100-46E, altitud: 200 m

Observació

L'informe es va fer fa 8 hores i 36 minuts, a les 11:00 UTC
Vent calma
Temperatura 29°C
Humitat 84%
Pressió 1003 hPa
Visibilitat 10 km o més
Escasses núvols a una alçada de 3000 ft

METAR: VTCN 301100Z 00000KT 9999 FEW030 29/26 Q1003 NOSIG

Hora: 02:36 (19:36 UTC)

Pronòstic

L'informe es va fer fa 2 hores i 36 minuts, a les 17:00 UTC
Pronòstic vàlid del 30 a les 18 UTC al 01 a les 18 UTC
Vent 5 kt del Sud-Est
Visibilitat 10 km o més
Núvols disperses a una alçada de 2500 ft
Temporalment
l' 01 a les 06 UTC al 01 a les 12 UTC
Vent 15 kt del Sud-Est amb ràfegues de 25 kt
Visibilitat: 4000 m
Escasses núvols a una alçada de 2500 ft, Cumulonimbus.
Cel ennuvolat a una alçada de 3500 ft
tempesta, pluja

TAF: VTCN 301700Z 3018/0118 13005KT 9999 SCT025 TEMPO 0106/0112 13015G25KT 4000 TSRA FEW025CB BKN035

Observacions i pronòstics meteorològics de més de 4000 aeroports (METAR i TAF).

Les estacions disponibles són els punts grocs i vermells al mapa.

Posi el ratolí al punt desitjat per veure el nom de l'estació.

Feu clic per veure les observacions i els pronòstics meteorològics.

Per canviar el mapa: feu clic els botons verds amb una creu de color negre per apropar; al botó verd amb un guió per allunyar la imatge; o en les fletxes verdes per a mapes adjacents.


METAR-TAF: